sensor_id;sensor_type;location;lat;lon;timestamp;P1;durP1;ratioP1;P2;durP2;ratioP2
59042;SDS011;44826;51.596;5.624;2024-01-30T06:59:09;7.32;;;4.18;;
59042;SDS011;44826;51.596;5.624;2024-01-30T07:01:34;5.97;;;4.13;;
59042;SDS011;44826;51.596;5.624;2024-01-30T07:04:17;7.28;;;4.68;;
59042;SDS011;44826;51.596;5.624;2024-01-30T07:06:53;6.05;;;4.05;;
59042;SDS011;44826;51.596;5.624;2024-01-30T07:09:18;6.97;;;4.25;;
59042;SDS011;44826;51.596;5.624;2024-01-30T07:11:54;6.38;;;4.03;;
59042;SDS011;44826;51.596;5.624;2024-01-30T07:14:20;7.43;;;4.53;;
59042;SDS011;44826;51.596;5.624;2024-01-30T07:16:46;8.77;;;4.63;;
59042;SDS011;44826;51.596;5.624;2024-01-30T07:19:11;6.70;;;4.13;;
59042;SDS011;44826;51.596;5.624;2024-01-30T07:21:39;6.53;;;3.97;;
59042;SDS011;44826;51.596;5.624;2024-01-30T07:24:05;7.78;;;4.40;;
59042;SDS011;44826;51.596;5.624;2024-01-30T07:26:31;6.65;;;4.05;;
59042;SDS011;44826;51.596;5.624;2024-01-30T07:28:56;8.20;;;4.53;;
59042;SDS011;44826;51.596;5.624;2024-01-30T07:31:24;8.02;;;4.05;;
59042;SDS011;44826;51.596;5.624;2024-01-30T07:33:49;6.93;;;4.05;;
59042;SDS011;44826;51.596;5.624;2024-01-30T07:36:15;5.85;;;4.20;;
59042;SDS011;44826;51.596;5.624;2024-01-30T07:38:40;7.07;;;4.13;;
59042;SDS011;44826;51.596;5.624;2024-01-30T07:41:06;7.80;;;4.57;;
59042;SDS011;44826;51.596;5.624;2024-01-30T07:43:31;6.78;;;4.32;;
59042;SDS011;44826;51.596;5.624;2024-01-30T07:45:59;6.82;;;4.45;;
59042;SDS011;44826;51.596;5.624;2024-01-30T07:48:26;6.68;;;4.00;;
59042;SDS011;44826;51.596;5.624;2024-01-30T07:50:52;6.25;;;4.57;;
59042;SDS011;44826;51.596;5.624;2024-01-30T07:53:18;8.00;;;4.15;;
59042;SDS011;44826;51.596;5.624;2024-01-30T07:55:43;6.80;;;4.43;;
59042;SDS011;44826;51.596;5.624;2024-01-30T07:58:12;8.23;;;4.70;;
59042;SDS011;44826;51.596;5.624;2024-01-30T08:00:38;6.72;;;4.68;;
59042;SDS011;44826;51.596;5.624;2024-01-30T08:03:04;7.72;;;4.80;;
59042;SDS011;44826;51.596;5.624;2024-01-30T08:05:29;9.73;;;4.63;;
59042;SDS011;44826;51.596;5.624;2024-01-30T08:07:55;7.50;;;4.47;;
59042;SDS011;44826;51.596;5.624;2024-01-30T08:10:21;6.93;;;4.50;;
59042;SDS011;44826;51.596;5.624;2024-01-30T08:12:46;8.43;;;4.65;;
59042;SDS011;44826;51.596;5.624;2024-01-30T08:15:11;8.60;;;4.18;;
59042;SDS011;44826;51.596;5.624;2024-01-30T08:17:38;6.97;;;4.47;;
59042;SDS011;44826;51.596;5.624;2024-01-30T08:20:06;8.60;;;4.88;;
59042;SDS011;44826;51.596;5.624;2024-01-30T08:22:33;8.00;;;4.85;;
59042;SDS011;44826;51.596;5.624;2024-01-30T08:24:58;9.07;;;4.70;;
59042;SDS011;44826;51.596;5.624;2024-01-30T08:27:24;7.35;;;4.57;;
59042;SDS011;44826;51.596;5.624;2024-01-30T08:29:49;8.55;;;4.70;;
59042;SDS011;44826;51.596;5.624;2024-01-30T08:32:15;7.70;;;4.65;;
59042;SDS011;44826;51.596;5.624;2024-01-30T08:34:41;7.88;;;4.72;;
59042;SDS011;44826;51.596;5.624;2024-01-30T08:37:09;7.85;;;4.60;;
59042;SDS011;44826;51.596;5.624;2024-01-30T08:39:37;9.50;;;4.38;;
59042;SDS011;44826;51.596;5.624;2024-01-30T08:42:02;7.95;;;4.47;;
59042;SDS011;44826;51.596;5.624;2024-01-30T08:44:28;6.43;;;4.15;;
59042;SDS011;44826;51.596;5.624;2024-01-30T08:46:53;8.27;;;4.63;;
59042;SDS011;44826;51.596;5.624;2024-01-30T08:49:19;8.15;;;4.68;;
59042;SDS011;44826;51.596;5.624;2024-01-30T08:51:45;9.13;;;4.60;;
59042;SDS011;44826;51.596;5.624;2024-01-30T08:54:10;7.38;;;4.43;;
59042;SDS011;44826;51.596;5.624;2024-01-30T08:56:36;7.25;;;4.72;;
59042;SDS011;44826;51.596;5.624;2024-01-30T08:59:01;6.93;;;4.68;;
59042;SDS011;44826;51.596;5.624;2024-01-30T09:01:27;7.68;;;4.80;;
59042;SDS011;44826;51.596;5.624;2024-01-30T09:03:52;7.35;;;4.75;;
59042;SDS011;44826;51.596;5.624;2024-01-30T09:06:18;10.63;;;5.10;;
59042;SDS011;44826;51.596;5.624;2024-01-30T10:00:48;9.10;;;4.78;;
59042;SDS011;44826;51.596;5.624;2024-01-30T10:03:17;11.18;;;5.45;;
59042;SDS011;44826;51.596;5.624;2024-01-30T10:09:03;8.45;;;4.97;;
59042;SDS011;44826;51.596;5.624;2024-01-30T10:11:51;8.18;;;4.68;;
59042;SDS011;44826;51.596;5.624;2024-01-30T10:14:24;8.68;;;5.10;;
59042;SDS011;44826;51.596;5.624;2024-01-30T10:16:58;9.63;;;4.88;;
59042;SDS011;44826;51.596;5.624;2024-01-30T10:22:42;9.80;;;5.20;;
59042;SDS011;44826;51.596;5.624;2024-01-30T10:44:24;8.45;;;5.15;;
59042;SDS011;44826;51.596;5.624;2024-01-30T10:47:09;11.23;;;5.60;;
59042;SDS011;44826;51.596;5.624;2024-01-30T10:53:07;8.57;;;5.10;;
59042;SDS011;44826;51.596;5.624;2024-01-30T10:56:11;10.50;;;5.50;;
59042;SDS011;44826;51.596;5.624;2024-01-30T11:09:04;17.88;;;5.65;;
59042;SDS011;44826;51.596;5.624;2024-01-30T11:18:35;12.38;;;5.88;;
59042;SDS011;44826;51.596;5.624;2024-01-30T11:24:28;10.07;;;5.72;;
59042;SDS011;44826;51.596;5.624;2024-01-30T11:54:57;9.90;;;5.72;;
59042;SDS011;44826;51.596;5.624;2024-01-30T12:02:49;10.88;;;5.32;;
59042;SDS011;44826;51.596;5.624;2024-01-30T12:05:25;7.75;;;4.70;;
59042;SDS011;44826;51.596;5.624;2024-01-30T12:08:13;8.60;;;4.53;;
59042;SDS011;44826;51.596;5.624;2024-01-30T12:11:06;7.13;;;3.58;;
59042;SDS011;44826;51.596;5.624;2024-01-30T12:13:31;6.43;;;3.60;;
59042;SDS011;44826;51.596;5.624;2024-01-30T12:15:57;7.80;;;4.03;;
59042;SDS011;44826;51.596;5.624;2024-01-30T12:24:39;6.38;;;3.80;;
59042;SDS011;44826;51.596;5.624;2024-01-30T12:27:23;6.60;;;3.50;;
59042;SDS011;44826;51.596;5.624;2024-01-30T12:29:55;6.57;;;3.92;;
59042;SDS011;44826;51.596;5.624;2024-01-30T12:35:36;6.43;;;3.15;;
59042;SDS011;44826;51.596;5.624;2024-01-30T12:38:22;7.95;;;3.20;;
59042;SDS011;44826;51.596;5.624;2024-01-30T12:48:49;3.42;;;2.15;;
59042;SDS011;44826;51.596;5.624;2024-01-30T12:51:14;6.03;;;2.47;;
59042;SDS011;44826;51.596;5.624;2024-01-30T13:03:30;2.45;;;1.40;;
59042;SDS011;44826;51.596;5.624;2024-01-30T13:13:27;1.90;;;1.10;;
59042;SDS011;44826;51.596;5.624;2024-01-30T13:23:14;1.75;;;1.00;;
59042;SDS011;44826;51.596;5.624;2024-01-30T13:25:33;3.20;;;0.90;;
59042;SDS011;44826;51.596;5.624;2024-01-30T13:28:40;2.40;;;0.75;;
59042;SDS011;44826;51.596;5.624;2024-01-30T13:31:06;2.92;;;0.95;;
59042;SDS011;44826;51.596;5.624;2024-01-30T13:34:21;3.05;;;0.90;;
59042;SDS011;44826;51.596;5.624;2024-01-30T13:37:06;1.65;;;0.90;;
59042;SDS011;44826;51.596;5.624;2024-01-30T15:29:52;4.22;;;2.65;;
59042;SDS011;44826;51.596;5.624;2024-01-30T15:55:59;5.47;;;2.65;;
59042;SDS011;44826;51.596;5.624;2024-01-30T15:58:40;4.75;;;2.70;;
59042;SDS011;44826;51.596;5.624;2024-01-30T16:01:08;7.38;;;2.50;;
59042;SDS011;44826;51.596;5.624;2024-01-30T16:03:34;5.30;;;2.63;;
59042;SDS011;44826;51.596;5.624;2024-01-30T16:06:16;5.40;;;2.58;;
59042;SDS011;44826;51.596;5.624;2024-01-30T16:08:44;4.20;;;2.40;;
59042;SDS011;44826;51.596;5.624;2024-01-30T16:11:20;3.75;;;2.30;;
59042;SDS011;44826;51.596;5.624;2024-01-30T16:14:15;4.97;;;2.28;;
59042;SDS011;44826;51.596;5.624;2024-01-30T16:22:56;7.10;;;2.50;;
59042;SDS011;44826;51.596;5.624;2024-01-30T16:29:14;6.18;;;2.90;;
59042;SDS011;44826;51.596;5.624;2024-01-30T16:42:55;6.93;;;3.22;;
59042;SDS011;44826;51.596;5.624;2024-01-30T16:45:21;5.53;;;3.10;;
59042;SDS011;44826;51.596;5.624;2024-01-30T16:47:53;6.10;;;3.30;;
59042;SDS011;44826;51.596;5.624;2024-01-30T16:51:21;5.38;;;3.28;;
59042;SDS011;44826;51.596;5.624;2024-01-30T16:54:05;5.03;;;3.22;;
59042;SDS011;44826;51.596;5.624;2024-01-30T16:56:33;5.95;;;3.50;;
59042;SDS011;44826;51.596;5.624;2024-01-30T16:58:59;9.70;;;4.38;;
59042;SDS011;44826;51.596;5.624;2024-01-30T17:01:52;8.02;;;4.32;;
59042;SDS011;44826;51.596;5.624;2024-01-30T17:04:20;7.53;;;3.90;;
59042;SDS011;44826;51.596;5.624;2024-01-30T17:22:29;8.85;;;4.95;;
59042;SDS011;44826;51.596;5.624;2024-01-30T17:24:55;9.95;;;4.90;;
59042;SDS011;44826;51.596;5.624;2024-01-30T17:38:23;7.45;;;4.78;;
59042;SDS011;44826;51.596;5.624;2024-01-30T17:41:12;8.20;;;4.95;;
59042;SDS011;44826;51.596;5.624;2024-01-30T17:58:51;9.05;;;5.63;;
59042;SDS011;44826;51.596;5.624;2024-01-30T18:07:17;9.75;;;5.68;;
59042;SDS011;44826;51.596;5.624;2024-01-30T18:10:01;8.77;;;5.85;;
59042;SDS011;44826;51.596;5.624;2024-01-30T18:12:36;8.77;;;5.80;;
59042;SDS011;44826;51.596;5.624;2024-01-30T18:17:34;10.37;;;5.93;;
59042;SDS011;44826;51.596;5.624;2024-01-30T18:19:59;9.80;;;6.00;;
59042;SDS011;44826;51.596;5.624;2024-01-30T18:22:25;9.18;;;6.07;;
59042;SDS011;44826;51.596;5.624;2024-01-30T18:24:50;9.50;;;6.07;;
59042;SDS011;44826;51.596;5.624;2024-01-30T18:27:15;9.15;;;6.15;;
59042;SDS011;44826;51.596;5.624;2024-01-30T18:29:51;7.47;;;5.30;;
59042;SDS011;44826;51.596;5.624;2024-01-30T18:32:16;8.82;;;5.82;;
59042;SDS011;44826;51.596;5.624;2024-01-30T18:35:01;8.07;;;5.50;;
59042;SDS011;44826;51.596;5.624;2024-01-30T18:37:29;8.10;;;5.45;;
59042;SDS011;44826;51.596;5.624;2024-01-30T18:39:55;8.85;;;5.75;;
59042;SDS011;44826;51.596;5.624;2024-01-30T18:45:28;7.65;;;5.55;;
59042;SDS011;44826;51.596;5.624;2024-01-30T18:48:14;7.05;;;4.97;;
59042;SDS011;44826;51.596;5.624;2024-01-30T20:41:04;9.50;;;6.18;;
59042;SDS011;44826;51.596;5.624;2024-01-30T21:11:02;11.35;;;6.45;;
59042;SDS011;44826;51.596;5.624;2024-01-30T21:13:47;11.43;;;6.85;;
59042;SDS011;44826;51.596;5.624;2024-01-30T21:22:47;11.18;;;6.63;;
59042;SDS011;44826;51.596;5.624;2024-01-30T21:27:57;10.43;;;6.20;;
59042;SDS011;44826;51.596;5.624;2024-01-30T21:35:39;13.20;;;6.88;;
59042;SDS011;44826;51.596;5.624;2024-01-30T21:38:25;11.95;;;7.10;;
59042;SDS011;44826;51.596;5.624;2024-01-30T21:41:02;12.70;;;7.10;;
59042;SDS011;44826;51.596;5.624;2024-01-30T21:50:26;11.52;;;5.75;;
59042;SDS011;44826;51.596;5.624;2024-01-30T21:52:57;12.82;;;6.38;;
59042;SDS011;44826;51.596;5.624;2024-01-30T21:58:26;10.90;;;5.85;;
59042;SDS011;44826;51.596;5.624;2024-01-30T22:03:41;11.80;;;6.32;;
59042;SDS011;44826;51.596;5.624;2024-01-30T22:34:39;9.05;;;4.78;;
59042;SDS011;44826;51.596;5.624;2024-01-30T22:37:32;10.55;;;5.30;;
59042;SDS011;44826;51.596;5.624;2024-01-30T22:40:38;9.95;;;4.97;;
59042;SDS011;44826;51.596;5.624;2024-01-30T22:43:19;8.82;;;4.60;;
59042;SDS011;44826;51.596;5.624;2024-01-30T22:45:57;10.57;;;4.75;;
59042;SDS011;44826;51.596;5.624;2024-01-30T22:48:32;11.60;;;5.25;;
59042;SDS011;44826;51.596;5.624;2024-01-30T22:51:11;9.55;;;4.78;;
59042;SDS011;44826;51.596;5.624;2024-01-30T22:53:36;11.02;;;4.57;;
59042;SDS011;44826;51.596;5.624;2024-01-30T22:56:15;13.10;;;4.35;;
59042;SDS011;44826;51.596;5.624;2024-01-30T22:59:16;9.23;;;3.70;;
59042;SDS011;44826;51.596;5.624;2024-01-30T23:08:43;7.38;;;2.92;;
59042;SDS011;44826;51.596;5.624;2024-01-30T23:11:52;7.00;;;2.70;;
59042;SDS011;44826;51.596;5.624;2024-01-30T23:14:49;9.18;;;3.13;;
59042;SDS011;44826;51.596;5.624;2024-01-30T23:20:30;8.10;;;3.20;;
59042;SDS011;44826;51.596;5.624;2024-01-30T23:23:19;6.10;;;2.92;;
59042;SDS011;44826;51.596;5.624;2024-01-30T23:25:49;5.47;;;2.97;;
59042;SDS011;44826;51.596;5.624;2024-01-30T23:28:42;11.32;;;3.28;;
59042;SDS011;44826;51.596;5.624;2024-01-30T23:31:19;7.00;;;2.53;;
59042;SDS011;44826;51.596;5.624;2024-01-30T23:34:23;7.05;;;2.65;;
59042;SDS011;44826;51.596;5.624;2024-01-30T23:37:29;8.13;;;3.08;;
59042;SDS011;44826;51.596;5.624;2024-01-30T23:40:28;5.13;;;2.83;;
59042;SDS011;44826;51.596;5.624;2024-01-30T23:46:50;8.20;;;2.53;;
59042;SDS011;44826;51.596;5.624;2024-01-30T23:56:09;4.70;;;2.08;;
59042;SDS011;44826;51.596;5.624;2024-01-30T23:58:53;7.18;;;2.15;;
